Time;durP1;ratioP1;P1;durP2;ratioP2;P2;SDS_P1;SDS_P2;PMS_P1;PMS_P2;Temp;Humidity;BMP_temperature;BMP_pressure;BME280_temperature;BME280_humidity;BME280_pressure;Samples;Min_cycle;Max_cycle;Signal;HPM_P1;HPM_P2
2022/06/14 00:01:52;;;;;;;3.17;2.63;;;12.90;99.90;;;;;;5092509;28;20174;-84
2022/06/14 00:04:19;;;;;;;9.20;2.60;;;12.90;99.90;;;;;;5089921;28;20408;-84
2022/06/14 00:06:44;;;;;;;5.13;2.77;;;12.80;99.90;;;;;;5075975;28;20421;-83
2022/06/14 00:09:10;;;;;;;6.50;3.23;;;12.80;99.90;;;;;;5076074;28;20402;-83
2022/06/14 00:11:38;;;;;;;8.90;3.00;;;12.80;99.90;;;;;;5074827;28;20179;-83
2022/06/14 00:14:07;;;;;;;3.83;2.30;;;12.80;99.90;;;;;;5074812;28;20289;-83
2022/06/14 00:16:33;;;;;;;5.10;2.37;;;12.70;99.90;;;;;;5075912;28;20448;-82
2022/06/14 00:19:01;;;;;;;6.53;2.50;;;12.70;99.90;;;;;;5074588;28;20555;-83
2022/06/14 00:21:30;;;;;;;3.03;2.23;;;12.60;99.90;;;;;;5091337;28;20438;-83
2022/06/14 00:23:55;;;;;;;3.27;2.60;;;12.60;99.90;;;;;;5075961;28;20418;-83
2022/06/14 00:26:21;;;;;;;7.33;2.87;;;12.60;99.90;;;;;;5075384;28;20436;-83
2022/06/14 00:28:47;;;;;;;2.40;2.20;;;12.30;99.90;;;;;;5075969;28;20175;-83
2022/06/14 00:31:16;;;;;;;5.40;2.87;;;12.30;99.90;;;;;;5074540;28;20722;-83
2022/06/14 00:33:47;;;;;;;3.13;2.83;;;12.40;99.90;;;;;;5074392;28;20191;-83
2022/06/14 00:36:29;;;;;;;3.90;2.80;;;12.30;99.90;;;;;;5074578;28;20384;-83
2022/06/14 00:38:57;;;;;;;3.83;2.57;;;12.30;99.90;;;;;;5063287;28;20906;-84
2022/06/14 00:41:42;;;;;;;2.93;2.37;;;12.20;99.90;;;;;;5074317;28;20434;-84
2022/06/14 00:44:38;;;;;;;2.70;2.50;;;12.20;99.90;;;;;;5075872;28;20408;-84
2022/06/14 00:47:13;;;;;;;3.63;2.80;;;12.10;99.90;;;;;;5059769;28;20421;-84
2022/06/14 00:49:56;;;;;;;3.60;2.67;;;12.00;99.90;;;;;;5074311;28;20466;-84
2022/06/14 00:52:40;;;;;;;4.97;2.63;;;12.10;99.90;;;;;;5075903;28;20416;-85
2022/06/14 00:55:15;;;;;;;5.13;2.70;;;11.90;99.90;;;;;;5074042;28;20380;-84
2022/06/14 00:57:51;;;;;;;6.87;2.73;;;11.80;99.90;;;;;;5087388;28;20525;-84
2022/06/14 01:00:22;;;;;;;3.10;2.47;;;12.10;99.90;;;;;;5074134;28;20899;-85
2022/06/14 01:02:53;;;;;;;6.63;2.47;;;11.80;99.90;;;;;;5074063;28;20807;-84
2022/06/14 01:05:28;;;;;;;3.07;2.60;;;11.90;99.90;;;;;;5073902;28;20421;-85
2022/06/14 01:07:57;;;;;;;4.27;3.00;;;11.80;99.90;;;;;;5088992;28;20375;-82
2022/06/14 01:10:32;;;;;;;3.10;2.43;;;11.80;99.90;;;;;;5074616;28;20484;-83
2022/06/14 01:13:03;;;;;;;5.13;3.00;;;11.70;99.90;;;;;;5075540;28;20456;-83
2022/06/14 01:15:32;;;;;;;4.83;2.53;;;11.70;99.90;;;;;;5074417;28;20936;-83
2022/06/14 01:18:07;;;;;;;3.47;2.50;;;11.60;99.90;;;;;;5075231;28;20495;-83
2022/06/14 01:20:34;;;;;;;5.00;2.60;;;11.60;99.90;;;;;;5074336;28;20482;-83
2022/06/14 01:23:01;;;;;;;5.67;2.67;;;11.70;99.90;;;;;;5075306;28;20409;-84
2022/06/14 01:25:30;;;;;;;5.20;3.00;;;11.60;99.90;;;;;;5073380;28;20422;-85
2022/06/14 01:27:57;;;;;;;7.50;3.03;;;11.50;99.90;;;;;;5074899;28;20412;-85
2022/06/14 01:30:31;;;;;;;4.30;2.63;;;11.50;99.90;;;;;;5075289;28;20488;-84
2022/06/14 01:33:01;;;;;;;3.50;2.83;;;11.50;99.90;;;;;;5073462;28;20457;-84
2022/06/14 01:35:35;;;;;;;13.30;3.00;;;11.40;99.90;;;;;;5073598;28;20483;-85
2022/06/14 01:38:04;;;;;;;2.93;2.60;;;11.40;99.90;;;;;;5072376;28;20392;-83
2022/06/14 01:41:03;;;;;;;7.70;2.90;;;11.40;99.90;;;;;;5084275;28;20416;-83
2022/06/14 01:44:00;;;;;;;4.40;2.60;;;11.30;99.90;;;;;;5076143;28;20453;-83
2022/06/14 01:46:43;;;;;;;4.70;3.30;;;11.20;99.90;;;;;;5073141;28;20494;-83
2022/06/14 01:52:17;;;;;;;3.90;3.07;;;11.20;99.90;;;;;;5074716;28;20396;-83
2022/06/14 01:54:55;;;;;;;4.50;3.53;;;11.20;99.90;;;;;;5085421;28;20430;-83
2022/06/14 01:57:42;;;;;;;5.13;3.07;;;11.20;99.90;;;;;;5072309;28;20429;-83
2022/06/14 02:00:13;;;;;;;4.60;3.27;;;11.00;99.90;;;;;;5073967;28;20775;-83
2022/06/14 02:02:52;;;;;;;8.17;3.80;;;11.00;99.90;;;;;;5070750;28;20425;-83
2022/06/14 02:05:32;;;;;;;7.50;3.50;;;11.00;99.90;;;;;;5074323;28;20417;-83
2022/06/14 02:08:15;;;;;;;5.80;2.70;;;11.00;99.90;;;;;;5066919;28;20836;-84
2022/06/14 02:11:20;;;;;;;3.70;2.50;;;10.90;99.90;;;;;;5073765;28;20422;-84
2022/06/14 02:13:58;;;;;;;7.53;3.17;;;10.70;99.90;;;;;;5068862;28;20878;-83
2022/06/14 02:16:45;;;;;;;3.63;2.43;;;10.70;99.90;;;;;;5089622;28;20856;-84
2022/06/14 02:19:43;;;;;;;6.40;2.57;;;10.70;99.90;;;;;;5072263;28;20421;-83
2022/06/14 02:22:22;;;;;;;4.90;2.83;;;10.70;99.90;;;;;;5073566;28;20409;-83
2022/06/14 02:25:03;;;;;;;4.83;3.20;;;10.80;99.90;;;;;;5073786;28;20401;-83
2022/06/14 02:27:46;;;;;;;6.47;2.70;;;10.70;99.90;;;;;;5073523;28;20907;-83
2022/06/14 02:30:17;;;;;;;3.63;2.77;;;10.60;99.90;;;;;;5072404;28;20460;-83
2022/06/14 02:32:56;;;;;;;5.03;2.43;;;10.60;99.90;;;;;;5073544;28;20462;-83
2022/06/14 02:35:24;;;;;;;9.67;3.30;;;10.50;99.90;;;;;;5073396;28;20410;-83
2022/06/14 02:38:21;;;;;;;4.20;2.97;;;10.40;99.90;;;;;;5064510;28;20413;-84
2022/06/14 02:40:55;;;;;;;5.20;3.07;;;10.50;99.90;;;;;;5072494;28;20426;-84
2022/06/14 02:43:28;;;;;;;4.80;2.87;;;11.10;99.90;;;;;;5073381;28;20414;-84
2022/06/14 02:46:10;;;;;;;4.87;3.07;;;10.40;99.90;;;;;;5073088;28;20421;-84
2022/06/14 02:48:54;;;;;;;4.83;2.80;;;10.30;99.90;;;;;;5060412;28;20413;-84
2022/06/14 02:51:37;;;;;;;10.93;2.97;;;10.30;99.90;;;;;;5073107;28;20421;-84
2022/06/14 02:54:15;;;;;;;3.33;3.00;;;10.20;99.90;;;;;;5073805;28;20461;-85
2022/06/14 02:56:45;;;;;;;4.63;3.43;;;10.20;99.90;;;;;;5066754;28;20845;-85
2022/06/14 02:59:33;;;;;;;5.93;4.10;;;10.10;99.90;;;;;;5066023;28;20417;-85
2022/06/14 03:02:10;;;;;;;4.10;3.10;;;10.10;99.90;;;;;;5072308;28;20951;-85
2022/06/14 03:04:59;;;;;;;7.20;3.20;;;10.00;99.90;;;;;;5072930;28;20425;-85
2022/06/14 03:07:31;;;;;;;4.47;3.40;;;10.00;99.90;;;;;;5072007;28;20424;-85
2022/06/14 03:09:58;;;;;;;4.80;3.30;;;9.90;99.90;;;;;;5072100;28;20925;-84
2022/06/14 03:12:35;;;;;;;4.73;3.03;;;9.90;99.90;;;;;;5073057;28;20423;-83
2022/06/14 03:15:27;;;;;;;5.30;3.17;;;9.90;99.90;;;;;;5071846;28;20425;-84
2022/06/14 03:18:08;;;;;;;4.53;3.20;;;9.90;99.90;;;;;;5067606;28;20440;-84
2022/06/14 03:20:52;;;;;;;6.10;3.83;;;9.90;99.90;;;;;;5071439;28;20428;-85
2022/06/14 03:23:36;;;;;;;5.60;3.80;;;9.80;99.90;;;;;;5088810;28;20421;-84
2022/06/14 03:26:30;;;;;;;7.37;3.93;;;9.80;99.90;;;;;;5076501;28;20525;-85
2022/06/14 03:29:05;;;;;;;5.53;2.90;;;9.80;99.90;;;;;;5073360;28;20455;-84
2022/06/14 03:31:53;;;;;;;4.43;3.50;;;9.80;99.90;;;;;;5072519;28;20427;-84
2022/06/14 03:34:35;;;;;;;9.23;3.60;;;9.80;99.90;;;;;;5063615;28;20452;-81
2022/06/14 03:37:01;;;;;;;6.10;3.40;;;9.80;99.90;;;;;;5070505;28;20434;-83
2022/06/14 03:39:40;;;;;;;3.47;2.80;;;10.00;99.90;;;;;;5069379;28;20532;-87
2022/06/14 03:42:09;;;;;;;6.73;3.60;;;9.80;99.90;;;;;;5060104;28;20421;-88
2022/06/14 03:44:35;;;;;;;3.67;2.87;;;9.80;99.90;;;;;;5073122;28;20429;-87
2022/06/14 03:47:25;;;;;;;8.60;3.70;;;9.80;99.90;;;;;;5072094;28;20477;-88
2022/06/14 03:49:59;;;;;;;4.60;3.37;;;9.80;99.90;;;;;;5069954;28;20552;-88
2022/06/14 03:52:37;;;;;;;7.50;3.97;;;9.80;99.90;;;;;;5072893;28;20417;-87
2022/06/14 03:55:15;;;;;;;4.90;3.27;;;9.90;99.90;;;;;;5072143;28;20516;-87
2022/06/14 03:57:58;;;;;;;7.17;3.53;;;9.80;99.90;;;;;;5071644;28;20421;-88
2022/06/14 04:00:39;;;;;;;5.23;3.70;;;9.90;99.90;;;;;;5071924;28;20417;-88
2022/06/14 04:03:50;;;;;;;6.17;3.27;;;9.90;99.90;;;;;;5060419;28;20422;-87
2022/06/14 04:06:42;;;;;;;7.80;3.60;;;9.90;99.90;;;;;;5032408;28;20588;-88
2022/06/14 04:09:30;;;;;;;6.57;3.57;;;10.00;99.90;;;;;;4987696;28;20440;-87
2022/06/14 04:12:13;;;;;;;3.93;3.10;;;10.10;99.90;;;;;;5014247;28;20884;-87
2022/06/14 04:15:09;;;;;;;3.53;3.23;;;10.10;99.90;;;;;;5017645;28;20470;-87
2022/06/14 04:17:55;;;;;;;4.10;3.30;;;10.10;99.90;;;;;;5029932;28;20439;-81
2022/06/14 04:20:39;;;;;;;3.67;3.37;;;10.20;99.90;;;;;;5030097;28;20422;-81
2022/06/14 04:23:36;;;;;;;6.83;3.10;;;10.20;99.90;;;;;;5038480;28;20429;-81
2022/06/14 04:26:46;;;;;;;8.67;3.30;;;10.30;99.90;;;;;;5025287;28;20520;-79
2022/06/14 04:29:23;;;;;;;7.20;3.10;;;10.30;99.90;;;;;;5002001;28;20416;-79
2022/06/14 04:31:53;;;;;;;5.70;3.30;;;10.40;99.90;;;;;;4970756;28;20965;-80
2022/06/14 04:34:31;;;;;;;4.10;3.00;;;10.40;99.90;;;;;;4990459;28;20469;-79
2022/06/14 04:37:11;;;;;;;3.60;3.30;;;10.50;99.90;;;;;;4991189;28;20452;-79
2022/06/14 04:39:52;;;;;;;5.03;3.20;;;10.60;99.90;;;;;;4993892;28;20436;-82
2022/06/14 04:42:24;;;;;;;3.17;2.97;;;10.70;99.90;;;;;;4999941;28;20516;-81
2022/06/14 04:44:56;;;;;;;4.30;3.13;;;10.80;99.90;;;;;;5013951;28;20509;-80
2022/06/14 04:47:32;;;;;;;7.90;3.53;;;11.00;99.90;;;;;;5014961;28;20436;-80
2022/06/14 04:50:04;;;;;;;6.57;3.47;;;10.90;99.90;;;;;;5015004;28;20848;-80
2022/06/14 04:52:42;;;;;;;4.93;3.27;;;11.00;99.90;;;;;;5020234;28;20446;-80
2022/06/14 04:55:29;;;;;;;5.90;2.97;;;11.30;99.90;;;;;;5028752;28;20441;-79
2022/06/14 04:58:34;;;;;;;6.57;3.27;;;11.20;99.90;;;;;;5019235;28;20432;-80
2022/06/14 05:01:07;;;;;;;5.33;3.33;;;11.30;99.90;;;;;;5016322;28;20434;-80
2022/06/14 05:03:38;;;;;;;5.20;3.80;;;11.50;99.90;;;;;;5024078;28;20852;-80
2022/06/14 05:06:13;;;;;;;5.27;3.50;;;11.60;99.90;;;;;;5072818;28;20437;-80
2022/06/14 05:08:55;;;;;;;3.77;3.37;;;11.70;99.90;;;;;;5073630;28;20407;-80
2022/06/14 05:11:40;;;;;;;7.00;4.37;;;11.80;99.90;;;;;;5063211;28;20426;-78
2022/06/14 05:14:32;;;;;;;8.07;3.67;;;11.90;99.90;;;;;;5069339;28;20951;-78
2022/06/14 05:17:11;;;;;;;3.50;3.00;;;12.00;99.90;;;;;;5064949;28;20692;-78
2022/06/14 05:19:50;;;;;;;5.93;3.57;;;12.20;99.90;;;;;;5067051;28;20748;-79
2022/06/14 05:22:46;;;;;;;13.10;3.33;;;12.30;99.90;;;;;;5078252;28;20435;-78
2022/06/14 05:25:46;;;;;;;22.27;3.60;;;12.40;99.90;;;;;;5080206;28;20409;-79
2022/06/14 05:28:53;;;;;;;6.47;3.20;;;12.60;99.90;;;;;;5075014;28;20380;-80
2022/06/14 05:31:23;;;;;;;10.57;3.90;;;12.70;99.90;;;;;;5013230;28;20428;-80
2022/06/14 05:34:35;;;;;;;7.80;3.20;;;12.90;99.90;;;;;;5025963;28;20520;-80
2022/06/14 05:41:00;;;;;;;13.53;3.83;;;13.20;99.90;;;;;;5019255;28;20419;-78
2022/06/14 05:43:34;;;;;;;12.00;2.93;;;13.30;99.90;;;;;;5031488;28;20427;-79
2022/06/14 05:46:09;;;;;;;10.43;3.10;;;13.50;99.90;;;;;;5033285;28;20976;-79
2022/06/14 05:49:04;;;;;;;14.83;3.30;;;13.60;99.90;;;;;;5020977;28;20461;-77
2022/06/14 05:51:36;;;;;;;5.77;3.30;;;13.80;99.90;;;;;;5013255;28;20398;-78
2022/06/14 05:54:35;;;;;;;6.70;2.97;;;13.90;99.90;;;;;;5013144;28;20447;-78
2022/06/14 05:57:29;;;;;;;8.73;2.60;;;14.10;99.90;;;;;;5013384;28;20789;-80
2022/06/14 06:00:02;;;;;;;7.00;2.90;;;14.30;99.90;;;;;;5019445;28;20458;-79
2022/06/14 06:02:59;;;;;;;8.10;2.70;;;14.40;99.90;;;;;;5038536;28;20402;-79
2022/06/14 06:05:35;;;;;;;6.47;2.70;;;14.60;99.90;;;;;;5021052;28;20497;-79
2022/06/14 06:08:29;;;;;;;5.07;2.77;;;14.70;99.90;;;;;;5035829;28;20436;-84
2022/06/14 06:11:13;;;;;;;4.17;3.27;;;14.90;99.90;;;;;;5091048;28;20396;-85
2022/06/14 06:14:11;;;;;;;10.40;3.00;;;14.90;99.90;;;;;;5074582;28;20442;-85
2022/06/14 06:17:05;;;;;;;11.10;3.20;;;15.10;99.90;;;;;;5070422;28;20417;-85
2022/06/14 06:19:59;;;;;;;16.33;3.30;;;15.30;99.90;;;;;;5072163;28;21008;-85
2022/06/14 06:23:19;;;;;;;13.43;2.70;;;15.40;99.90;;;;;;5084528;28;20513;-84
2022/06/14 06:26:00;;;;;;;5.77;2.70;;;15.50;99.90;;;;;;5016350;28;20451;-82
2022/06/14 06:28:35;;;;;;;14.37;2.90;;;15.70;99.90;;;;;;5030682;28;20933;-81
2022/06/14 06:34:29;;;;;;;5.13;2.70;;;15.90;99.90;;;;;;5024325;28;20479;-77
2022/06/14 06:37:33;;;;;;;14.73;2.83;;;16.10;99.90;;;;;;5031191;28;20917;-77
2022/06/14 06:40:05;;;;;;;8.90;2.60;;;16.20;99.90;;;;;;5029066;28;20418;-78
2022/06/14 06:42:45;;;;;;;5.07;2.20;;;16.30;99.90;;;;;;5015287;28;20787;-77
2022/06/14 06:45:30;;;;;;;2.47;2.27;;;16.50;99.90;;;;;;5038273;28;20392;-77
2022/06/14 06:51:47;;;;;;;3.90;2.20;;;16.80;99.90;;;;;;5025343;28;20447;-77
2022/06/14 06:54:54;;;;;;;10.10;2.30;;;17.00;99.90;;;;;;5019768;28;20434;-76
2022/06/14 06:57:33;;;;;;;6.77;2.77;;;17.20;99.90;;;;;;5022394;28;20921;-78
2022/06/14 07:00:04;;;;;;;11.07;2.10;;;17.40;99.90;;;;;;5046722;28;20420;-78
2022/06/14 07:06:03;;;;;;;5.20;2.27;;;17.70;99.90;;;;;;5073588;28;20409;-85
2022/06/14 07:09:01;;;;;;;16.97;2.83;;;17.90;99.90;;;;;;5073793;28;20507;-85
2022/06/14 07:11:59;;;;;;;9.20;2.30;;;18.00;99.90;;;;;;5072918;28;20917;-80
2022/06/14 07:18:12;;;;;;;4.43;2.00;;;18.30;99.90;;;;;;5034400;28;20436;-81
2022/06/14 07:21:23;;;;;;;4.83;2.33;;;18.50;99.90;;;;;;5022836;28;20547;-81
2022/06/14 07:24:20;;;;;;;7.43;2.00;;;18.70;99.90;;;;;;5031620;28;20891;-80
2022/06/14 07:30:49;;;;;;;6.90;2.40;;;18.90;99.90;;;;;;5030691;28;20372;-85
2022/06/14 07:33:20;;;;;;;5.23;2.20;;;19.10;99.90;;;;;;5011273;28;20458;-85
2022/06/14 07:35:54;;;;;;;6.57;2.10;;;19.10;99.90;;;;;;5040966;28;20432;-85
2022/06/14 07:38:36;;;;;;;11.80;2.33;;;19.30;99.90;;;;;;5013648;28;20929;-85
2022/06/14 07:41:37;;;;;;;13.67;2.30;;;19.40;99.90;;;;;;5014352;28;20434;-80
2022/06/14 07:44:05;;;;;;;5.90;1.90;;;19.60;99.90;;;;;;5029978;28;20522;-80
2022/06/14 07:47:03;;;;;;;7.00;2.40;;;19.60;99.90;;;;;;5030149;28;20417;-80
2022/06/14 07:49:41;;;;;;;12.10;1.90;;;19.60;99.90;;;;;;5030145;28;20426;-80
2022/06/14 07:52:36;;;;;;;4.07;2.17;;;19.70;99.90;;;;;;5055478;28;20420;-80
2022/06/14 07:55:15;;;;;;;6.47;2.10;;;19.90;99.90;;;;;;5031945;28;20443;-80
2022/06/14 07:57:45;;;;;;;20.00;2.43;;;20.10;99.90;;;;;;5035914;28;20455;-80
2022/06/14 08:03:26;;;;;;;4.37;1.80;;;20.30;99.90;;;;;;5030477;28;20494;-80
2022/06/14 08:05:53;;;;;;;8.80;2.07;;;20.50;99.90;;;;;;5030124;28;20517;-80
2022/06/14 08:08:23;;;;;;;5.70;1.93;;;20.60;99.90;;;;;;5035774;28;20456;-81
2022/06/14 08:10:54;;;;;;;2.43;2.10;;;20.60;99.90;;;;;;5029821;28;20422;-81
2022/06/14 08:13:26;;;;;;;1.80;1.60;;;20.70;99.90;;;;;;5034521;28;20554;-86
2022/06/14 08:15:55;;;;;;;5.60;2.27;;;20.80;99.90;;;;;;5034162;28;20911;-85
2022/06/14 08:18:40;;;;;;;2.77;1.83;;;20.80;99.90;;;;;;5034441;28;20543;-85
2022/06/14 08:21:31;;;;;;;3.87;2.30;;;21.00;99.90;;;;;;5033926;28;20451;-86
2022/06/14 08:24:05;;;;;;;8.13;2.57;;;21.20;99.90;;;;;;5036143;28;20428;-85
2022/06/14 08:26:48;;;;;;;6.80;2.00;;;21.30;99.90;;;;;;5027318;28;20513;-86
2022/06/14 08:29:21;;;;;;;4.93;2.07;;;21.40;99.90;;;;;;5036023;28;20435;-80
2022/06/14 08:31:55;;;;;;;5.00;2.00;;;21.50;99.90;;;;;;5055895;28;20523;-85
2022/06/14 08:34:49;;;;;;;8.53;1.90;;;21.60;99.90;;;;;;5063459;28;20460;-84
2022/06/14 08:37:39;;;;;;;4.03;1.87;;;21.70;99.90;;;;;;5073907;28;20423;-85
2022/06/14 08:40:41;;;;;;;6.73;1.80;;;21.80;99.90;;;;;;5075213;28;20408;-84
2022/06/14 08:43:10;;;;;;;5.90;1.90;;;22.00;99.90;;;;;;5068984;28;20430;-82
2022/06/14 08:45:38;;;;;;;2.60;1.83;;;22.00;99.90;;;;;;5070317;28;20446;-81
2022/06/14 08:48:20;;;;;;;3.07;1.97;;;21.90;99.90;;;;;;5067477;28;20432;-82
2022/06/14 08:50:48;;;;;;;7.23;2.43;;;21.80;99.90;;;;;;5063571;28;20420;-82
2022/06/14 08:53:22;;;;;;;2.03;1.70;;;21.90;99.90;;;;;;5069330;28;20459;-82
2022/06/14 08:56:00;;;;;;;4.20;1.77;;;22.00;99.90;;;;;;5070400;28;20934;-82
2022/06/14 08:59:00;;;;;;;5.63;1.80;;;22.10;99.90;;;;;;5076457;28;20921;-88
2022/06/14 09:01:31;;;;;;;3.97;1.90;;;22.10;99.90;;;;;;5074277;28;20420;-89
2022/06/14 09:04:27;;;;;;;10.73;2.53;;;22.10;99.90;;;;;;5074934;28;20439;-88
2022/06/14 09:07:20;;;;;;;7.07;1.70;;;22.20;99.90;;;;;;5074951;28;20429;-88
2022/06/14 09:10:00;;;;;;;5.60;2.20;;;22.30;99.90;;;;;;5084011;28;20557;-89
2022/06/14 09:12:58;;;;;;;5.50;2.20;;;22.20;99.90;;;;;;5070503;28;20473;-89
2022/06/14 09:15:44;;;;;;;6.70;2.33;;;22.40;99.90;;;;;;5068692;28;20457;-89
2022/06/14 09:18:44;;;;;;;4.50;2.13;;;22.50;99.90;;;;;;5074703;28;20437;-88
2022/06/14 09:21:16;;;;;;;14.83;2.10;;;22.70;99.90;;;;;;5081719;28;20408;-88
2022/06/14 09:24:06;;;;;;;2.93;1.90;;;22.70;99.90;;;;;;5079238;28;20412;-89
2022/06/14 09:26:59;;;;;;;1.80;1.70;;;22.80;99.90;;;;;;5075038;28;20516;-83
2022/06/14 09:30:05;;;;;;;7.73;2.37;;;23.00;99.90;;;;;;5067485;28;20548;-81
2022/06/14 09:33:13;;;;;;;7.63;2.50;;;23.10;99.90;;;;;;5066508;28;20432;-82
2022/06/14 09:36:12;;;;;;;3.10;1.60;;;23.40;99.90;;;;;;5072319;28;20424;-82
2022/06/14 09:39:29;;;;;;;5.30;2.83;;;23.60;99.90;;;;;;5072743;28;20414;-82
2022/06/14 09:52:32;;;;;;;2.87;1.70;;;24.10;99.90;;;;;;5055713;28;20388;-88
2022/06/14 09:55:17;;;;;;;2.70;1.70;;;24.10;99.90;;;;;;5017535;28;20515;-88
2022/06/14 10:01:29;;;;;;;4.67;1.93;;;24.20;99.90;;;;;;5014440;28;20478;-81
2022/06/14 10:04:43;;;;;;;4.73;2.13;;;24.40;99.90;;;;;;5017531;28;20419;-82
2022/06/14 10:07:36;;;;;;;4.47;1.80;;;24.30;99.90;;;;;;4954036;28;20425;-81
2022/06/14 10:10:34;;;;;;;5.40;1.80;;;24.30;99.90;;;;;;4953540;28;20438;-82
2022/06/14 10:13:05;;;;;;;4.70;2.13;;;24.20;99.90;;;;;;4951099;28;20500;-82
2022/06/14 10:16:05;;;;;;;3.50;1.70;;;24.20;99.90;;;;;;4952956;28;20430;-81
2022/06/14 10:18:36;;;;;;;2.80;1.80;;;24.30;99.90;;;;;;4953196;28;20527;-82
2022/06/14 10:21:17;;;;;;;4.97;1.70;;;24.40;99.90;;;;;;4952607;28;20528;-81
2022/06/14 10:23:55;;;;;;;6.90;1.80;;;24.50;99.90;;;;;;4948727;28;20983;-82
2022/06/14 10:30:03;;;;;;;2.27;1.50;;;24.70;99.90;;;;;;4943087;28;20610;-82
2022/06/14 10:32:41;;;;;;;18.70;2.23;;;24.90;99.90;;;;;;4979424;28;20441;-81
2022/06/14 10:35:50;;;;;;;2.87;1.43;;;25.00;99.90;;;;;;4991013;28;20420;-83
2022/06/14 10:38:25;;;;;;;4.33;1.80;;;25.00;99.90;;;;;;4947092;29;20486;-82
2022/06/14 10:41:04;;;;;;;4.33;1.50;;;25.10;99.90;;;;;;4944683;29;20777;-84
2022/06/14 10:44:09;;;;;;;5.50;1.73;;;25.30;99.90;;;;;;4968031;28;20469;-82
2022/06/14 10:46:43;;;;;;;8.67;1.77;;;25.30;99.90;;;;;;4991079;28;20434;-81
2022/06/14 10:49:21;;;;;;;2.27;1.60;;;25.40;99.90;;;;;;4983226;28;21035;-82
2022/06/14 10:51:46;;;;;;;6.60;1.80;;;25.40;99.90;;;;;;4973507;28;20526;-82
2022/06/14 10:54:26;;;;;;;2.00;1.70;;;25.40;99.90;;;;;;4982708;28;20554;-81
2022/06/14 10:56:57;;;;;;;6.13;1.70;;;25.50;99.90;;;;;;4984221;28;20252;-81
2022/06/14 10:59:28;;;;;;;8.97;2.00;;;25.60;99.90;;;;;;4990285;28;20426;-82
2022/06/14 11:02:21;;;;;;;2.60;1.67;;;25.80;99.90;;;;;;4991407;28;20435;-81
2022/06/14 11:05:19;;;;;;;8.80;2.13;;;26.00;99.90;;;;;;4974762;28;20468;-81
2022/06/14 11:08:21;;;;;;;8.13;1.90;;;26.00;99.90;;;;;;4990563;28;20431;-81
2022/06/14 11:10:53;;;;;;;3.93;1.93;;;26.10;99.90;;;;;;4990971;28;20958;-81
2022/06/14 11:13:28;;;;;;;4.03;1.80;;;26.10;99.90;;;;;;4991911;28;20464;-87
2022/06/14 11:16:34;;;;;;;7.93;1.87;;;26.10;99.90;;;;;;5053008;28;20531;-87
2022/06/14 11:19:32;;;;;;;6.00;1.70;;;26.30;99.90;;;;;;5069871;28;20521;-88
2022/06/14 11:22:06;;;;;;;2.93;1.60;;;26.40;99.90;;;;;;5076329;28;20557;-88
2022/06/14 11:25:12;;;;;;;2.33;1.67;;;26.50;99.90;;;;;;5083068;28;20430;-87
2022/06/14 11:27:53;;;;;;;3.53;1.70;;;26.60;99.90;;;;;;5001374;28;20476;-82
2022/06/14 11:30:24;;;;;;;3.00;1.77;;;26.70;99.90;;;;;;5010563;28;20413;-81
2022/06/14 11:33:22;;;;;;;5.27;1.60;;;26.70;99.90;;;;;;5014080;28;20467;-81
2022/06/14 11:36:06;;;;;;;3.03;1.73;;;26.70;99.90;;;;;;5010604;28;21016;-82
2022/06/14 11:38:50;;;;;;;3.17;1.67;;;26.90;99.90;;;;;;5010479;28;20426;-82
2022/06/14 11:41:20;;;;;;;4.67;1.90;;;26.80;99.90;;;;;;5010643;28;20425;-82
2022/06/14 11:43:54;;;;;;;7.50;1.73;;;26.80;99.90;;;;;;4991816;28;20546;-87
2022/06/14 11:46:44;;;;;;;4.67;1.80;;;26.80;99.90;;;;;;5010841;28;20429;-87
2022/06/14 11:49:36;;;;;;;6.10;1.90;;;26.90;99.90;;;;;;5016065;28;20492;-88
2022/06/14 11:52:24;;;;;;;6.60;1.90;;;26.90;99.90;;;;;;5015456;28;20432;-87
2022/06/14 11:55:22;;;;;;;4.30;1.73;;;27.00;99.90;;;;;;5021103;28;20452;-88
2022/06/14 11:58:16;;;;;;;4.63;1.77;;;26.90;99.90;;;;;;5020436;28;20430;-87
2022/06/14 12:00:51;;;;;;;2.40;1.63;;;26.90;99.90;;;;;;5007009;28;20461;-81
2022/06/14 12:04:03;;;;;;;5.23;1.63;;;27.00;99.90;;;;;;5028172;28;20787;-81
2022/06/14 12:07:01;;;;;;;1.93;1.80;;;27.10;99.90;;;;;;5073084;28;20475;-82
2022/06/14 12:09:42;;;;;;;2.10;1.47;;;27.30;99.90;;;;;;5075844;28;20487;-81
2022/06/14 12:12:26;;;;;;;2.90;1.73;;;27.40;99.90;;;;;;5071361;28;20425;-85
2022/06/14 12:15:08;;;;;;;2.50;1.90;;;27.40;99.90;;;;;;5075888;28;20449;-83
2022/06/14 12:17:46;;;;;;;4.90;1.77;;;27.50;99.90;;;;;;5060867;28;20438;-83
2022/06/14 12:20:18;;;;;;;4.73;1.50;;;27.60;99.90;;;;;;5075429;28;20834;-83
2022/06/14 12:23:13;;;;;;;2.90;1.50;;;27.60;99.90;;;;;;5075259;28;20501;-82
2022/06/14 12:29:09;;;;;;;8.77;1.80;;;27.70;99.90;;;;;;5075801;28;20417;-83
2022/06/14 12:31:41;;;;;;;4.73;1.60;;;27.90;99.90;;;;;;5068745;28;20421;-82
2022/06/14 12:34:24;;;;;;;3.70;1.50;;;28.00;99.90;;;;;;5070425;28;20960;-82
2022/06/14 12:37:18;;;;;;;3.97;1.80;;;28.10;99.90;;;;;;5081065;28;20461;-83
2022/06/14 12:39:56;;;;;;;8.07;1.77;;;28.10;99.90;;;;;;5074568;28;20431;-83
2022/06/14 12:42:32;;;;;;;4.03;1.80;;;28.10;99.90;;;;;;5075221;28;20426;-83
2022/06/14 12:45:01;;;;;;;3.73;1.83;;;28.20;99.90;;;;;;5075623;28;20428;-83
2022/06/14 12:47:48;;;;;;;11.73;1.80;;;28.30;99.90;;;;;;5074888;28;20565;-83
2022/06/14 12:50:21;;;;;;;6.30;1.87;;;28.30;99.90;;;;;;5063074;28;20427;-83
2022/06/14 12:52:53;;;;;;;3.50;1.40;;;28.30;99.90;;;;;;5074515;28;20918;-82
2022/06/14 12:55:47;;;;;;;10.73;1.80;;;28.40;99.90;;;;;;5074980;28;20868;-83
2022/06/14 12:58:39;;;;;;;4.60;2.00;;;28.40;99.90;;;;;;5068171;28;20435;-83
2022/06/14 13:01:19;;;;;;;16.53;2.30;;;28.40;99.90;;;;;;5062023;28;20435;-83
2022/06/14 13:03:57;;;;;;;2.00;1.63;;;28.40;99.90;;;;;;5074797;28;20916;-83
2022/06/14 13:06:34;;;;;;;2.80;1.67;;;28.40;99.90;;;;;;5062264;28;20825;-83
2022/06/14 13:09:00;;;;;;;3.33;1.50;;;28.40;99.90;;;;;;5075079;28;20446;-76
2022/06/14 13:12:02;;;;;;;5.00;1.80;;;28.40;99.90;;;;;;5080254;28;20416;-83
2022/06/14 13:14:30;;;;;;;3.87;1.70;;;28.20;99.90;;;;;;5082194;28;20557;-76
2022/06/14 13:17:04;;;;;;;2.73;1.67;;;28.00;99.90;;;;;;5080581;28;20930;-83
2022/06/14 13:19:40;;;;;;;6.10;1.70;;;28.00;99.90;;;;;;5083249;28;20422;-83
2022/06/14 13:22:43;;;;;;;1.90;1.60;;;28.10;99.90;;;;;;5075373;28;20408;-83
2022/06/14 13:25:30;;;;;;;7.40;2.07;;;28.30;99.90;;;;;;5074014;28;20419;-83
2022/06/14 13:28:30;;;;;;;1.80;1.40;;;28.30;99.90;;;;;;5074390;28;20400;-82
2022/06/14 13:31:14;;;;;;;1.97;1.60;;;28.40;99.90;;;;;;5066788;28;20423;-77
2022/06/14 13:34:01;;;;;;;7.20;1.63;;;28.50;99.90;;;;;;5069030;28;20471;-76
2022/06/14 13:36:39;;;;;;;3.03;1.57;;;28.60;99.90;;;;;;5074458;28;20422;-77
2022/06/14 13:39:27;;;;;;;3.73;1.43;;;28.70;99.90;;;;;;5073908;28;20474;-77
2022/06/14 13:42:05;;;;;;;2.87;1.50;;;28.80;99.90;;;;;;5074042;28;20495;-76
2022/06/14 13:44:51;;;;;;;2.07;1.30;;;29.00;99.90;;;;;;5064216;28;20517;-77
2022/06/14 13:47:25;;;;;;;4.40;1.80;;;29.10;99.90;;;;;;5064652;28;20420;-77
2022/06/14 13:50:09;;;;;;;2.47;1.87;;;29.20;99.90;;;;;;5061414;28;20420;-77
2022/06/14 13:52:47;;;;;;;3.40;1.60;;;29.30;99.90;;;;;;5065394;28;20427;-77
2022/06/14 13:55:13;;;;;;;4.30;1.30;;;29.20;99.90;;;;;;5068623;28;20422;-77
2022/06/14 13:57:57;;;;;;;2.70;2.20;;;29.30;99.90;;;;;;5073688;28;20428;-77
2022/06/14 14:00:43;;;;;;;3.70;1.80;;;29.40;99.90;;;;;;5064996;28;20216;-77
2022/06/14 14:03:31;;;;;;;2.90;1.23;;;29.60;99.90;;;;;;5071471;28;20917;-77
2022/06/14 14:06:16;;;;;;;2.90;1.73;;;29.70;99.90;;;;;;5073707;28;20989;-78
2022/06/14 14:09:31;;;;;;;6.53;1.83;;;29.80;99.90;;;;;;5073285;28;20985;-78
2022/06/14 14:12:28;;;;;;;1.60;1.37;;;29.90;99.90;;;;;;5034428;28;20449;-78
2022/06/14 14:15:06;;;;;;;2.83;1.50;;;30.00;99.90;;;;;;5032958;28;20481;-77
2022/06/14 14:18:02;;;;;;;2.90;1.10;;;30.10;99.90;;;;;;5031108;28;20446;-77
2022/06/14 14:20:42;;;;;;;3.83;1.47;;;30.00;99.90;;;;;;5031017;28;20457;-77
2022/06/14 14:23:30;;;;;;;1.30;1.20;;;29.90;99.90;;;;;;5024607;28;20824;-77
2022/06/14 14:26:11;;;;;;;4.37;1.63;;;29.80;99.90;;;;;;5033204;28;20525;-77
2022/06/14 14:29:04;;;;;;;2.53;1.43;;;29.90;99.90;;;;;;5032050;28;20774;-77
2022/06/14 14:31:42;;;;;;;2.20;1.30;;;29.90;99.90;;;;;;5029108;28;20849;-78
2022/06/14 14:34:29;;;;;;;2.60;1.40;;;29.90;99.90;;;;;;5028662;28;20495;-77
2022/06/14 14:37:13;;;;;;;2.83;1.70;;;29.90;99.90;;;;;;5014553;28;20933;-78
2022/06/14 14:40:00;;;;;;;1.97;1.30;;;29.90;99.90;;;;;;5024331;28;20432;-78
2022/06/14 14:42:33;;;;;;;1.63;1.53;;;29.90;99.90;;;;;;5039702;28;20479;-78
2022/06/14 14:45:15;;;;;;;10.07;1.50;;;29.80;99.90;;;;;;5067976;28;20912;-82
2022/06/14 14:48:01;;;;;;;3.57;1.47;;;29.70;99.90;;;;;;5072205;28;20429;-82
2022/06/14 14:50:43;;;;;;;2.90;1.20;;;29.80;99.90;;;;;;5068774;28;20515;-82
2022/06/14 14:53:22;;;;;;;2.40;1.60;;;29.80;99.90;;;;;;5069047;28;20952;-82